Burtonville, Kentucky
Current Conditions -  °F | °C
As of 3:15 PM on Sunday 25 Jan 2015 (Local Time) from KFGX Reporting Station
Drizzle Drizzle  
Wind Chill:   Ceiling: 5000
Heat Index:   Visibility: 10mi
Dew Point:   Wind: 5mph
Humidity: 85%   Direction: 20°NNE
Pressure: 29.7"   Gusts: NA
Location:  38.5845°N, 83.5468°W
Report Text: KFGX 252015Z AUTO 02004KT 10SM -DZ BKN050 OVC060 03/01 A2970 RMK AO2 T00330010
Loading
Personal Weather Stations






























Interactive Weather Map New forecast layout! Learn more

10-Day Weather Forecast

Advertisements
Track Severe Weather on mobile